createdAt,value
2023-05-23T00:01:32.470Z,17.20
2023-05-23T00:06:38.932Z,17.20
2023-05-23T00:11:45.240Z,17.10
2023-05-23T00:16:49.678Z,17.10
2023-05-23T00:21:58.748Z,17.10
2023-05-23T00:27:03.028Z,17.00
2023-05-23T00:32:07.252Z,17.00
2023-05-23T00:37:12.938Z,17.00
2023-05-23T00:42:16.998Z,17.00
2023-05-23T00:47:21.444Z,16.90
2023-05-23T00:52:27.280Z,16.90
2023-05-23T00:57:31.476Z,16.80
2023-05-23T01:02:39.223Z,16.80
2023-05-23T01:07:44.835Z,16.70
2023-05-23T01:13:02.506Z,16.70
2023-05-23T01:18:17.043Z,16.70
2023-05-23T01:23:56.173Z,16.60
2023-05-23T01:29:10.460Z,16.60
2023-05-23T01:34:17.170Z,16.60
2023-05-23T01:39:21.287Z,16.50
2023-05-23T01:44:27.420Z,16.50
2023-05-23T01:49:37.338Z,16.40
2023-05-23T01:54:44.015Z,16.40
2023-05-23T01:59:49.651Z,16.40
2023-05-23T02:04:57.323Z,16.40
2023-05-23T02:10:01.752Z,16.40
2023-05-23T02:15:09.411Z,16.30
2023-05-23T02:20:14.518Z,16.30
2023-05-23T02:25:18.701Z,16.30
2023-05-23T02:30:24.404Z,16.20
2023-05-23T02:35:28.662Z,16.20
2023-05-23T02:40:32.788Z,16.20
2023-05-23T02:45:40.287Z,16.20
2023-05-23T02:50:44.740Z,16.20
2023-05-23T02:55:48.857Z,16.20
2023-05-23T03:00:54.315Z,16.20
2023-05-23T03:05:58.462Z,16.20
2023-05-23T03:11:02.734Z,16.20
2023-05-23T03:16:08.601Z,16.20
2023-05-23T03:21:12.718Z,16.10
2023-05-23T03:26:16.916Z,16.10
2023-05-23T03:31:22.674Z,16.10
2023-05-23T03:36:28.375Z,16.10
2023-05-23T03:41:32.852Z,16.20
2023-05-23T03:46:39.703Z,16.10
2023-05-23T03:51:44.771Z,16.10
2023-05-23T03:56:52.882Z,16.10
2023-05-23T04:01:59.434Z,16.10
2023-05-23T04:07:05.697Z,16.10
2023-05-23T04:12:12.010Z,16.10
2023-05-23T04:17:18.562Z,16.10
2023-05-23T04:22:23.138Z,16.10
2023-05-23T04:27:27.378Z,16.10
2023-05-23T04:32:33.359Z,16.00
2023-05-23T04:37:37.929Z,16.00
2023-05-23T04:42:44.689Z,16.00
2023-05-23T04:48:10.339Z,16.00
2023-05-23T04:53:23.728Z,16.00
2023-05-23T04:58:28.099Z,15.90
2023-05-23T05:03:37.235Z,15.90
2023-05-23T05:08:41.800Z,15.90
2023-05-23T05:13:47.621Z,15.80
2023-05-23T05:18:53.419Z,15.90
2023-05-23T05:24:00.027Z,15.80
2023-05-23T05:29:04.512Z,15.80
2023-05-23T05:34:10.260Z,15.70
2023-05-23T05:39:15.099Z,15.70
2023-05-23T05:44:19.734Z,15.60
2023-05-23T05:49:25.234Z,15.60
2023-05-23T05:54:29.665Z,15.60
2023-05-23T05:59:34.097Z,15.60
2023-05-23T06:04:39.655Z,15.60
2023-05-23T06:09:44.913Z,15.60
2023-05-23T06:14:48.986Z,15.50
2023-05-23T06:19:55.719Z,15.50
2023-05-23T06:25:00.455Z,15.40
2023-05-23T06:30:05.360Z,15.40
2023-05-23T06:35:11.448Z,15.40
2023-05-23T06:40:15.550Z,15.40
2023-05-23T06:45:19.946Z,15.40
2023-05-23T06:50:25.472Z,15.40
2023-05-23T06:55:32.017Z,15.40
2023-05-23T07:00:36.309Z,15.40
2023-05-23T07:05:50.344Z,15.40
2023-05-23T07:10:57.139Z,15.50
2023-05-23T07:16:10.343Z,15.50
2023-05-23T07:21:26.387Z,15.60
2023-05-23T07:26:30.999Z,15.60
2023-05-23T07:31:35.503Z,15.60
2023-05-23T07:36:42.555Z,15.60
2023-05-23T07:41:50.294Z,15.50
2023-05-23T07:46:55.937Z,15.50
2023-05-23T07:52:02.704Z,15.50
2023-05-23T07:57:10.749Z,15.50
2023-05-23T08:02:15.997Z,15.50
2023-05-23T08:07:22.062Z,15.50
2023-05-23T08:12:33.904Z,15.50
2023-05-23T08:17:45.418Z,15.60
2023-05-23T08:22:58.330Z,15.60
2023-05-23T08:28:03.131Z,15.60
2023-05-23T08:33:19.213Z,15.60
2023-05-23T08:38:27.522Z,15.70
2023-05-23T08:43:49.973Z,15.70
2023-05-23T08:49:23.040Z,15.80
2023-05-23T08:54:41.153Z,15.70
2023-05-23T08:59:46.467Z,15.80
2023-05-23T09:04:50.906Z,15.80
2023-05-23T09:10:01.376Z,15.90
2023-05-23T09:15:07.936Z,15.90
2023-05-23T09:20:14.824Z,15.90
2023-05-23T09:25:26.856Z,16.00
2023-05-23T09:30:36.047Z,16.10
2023-05-23T09:35:46.481Z,16.20
2023-05-23T09:40:54.933Z,16.20
2023-05-23T09:46:02.742Z,16.20
2023-05-23T09:51:07.762Z,16.30
2023-05-23T09:56:15.552Z,16.50
2023-05-23T10:01:20.316Z,16.90
2023-05-23T10:06:28.302Z,17.10
2023-05-23T10:12:37.039Z,17.30
2023-05-23T10:18:03.861Z,17.60
2023-05-23T10:23:08.547Z,18.10
2023-05-23T10:28:15.079Z,18.20
2023-05-23T10:33:19.554Z,18.20
2023-05-23T10:38:36.073Z,18.50
2023-05-23T10:43:50.797Z,18.80
2023-05-23T10:48:58.424Z,18.90
2023-05-23T10:54:04.471Z,18.80
2023-05-23T10:59:11.370Z,18.70
2023-05-23T11:04:15.786Z,18.80
2023-05-23T11:09:22.072Z,19.20
2023-05-23T11:14:56.213Z,19.50
2023-05-23T11:20:06.526Z,19.80
2023-05-23T11:25:12.651Z,19.70
2023-05-23T11:30:19.643Z,19.80
2023-05-23T11:35:24.142Z,19.90
2023-05-23T11:40:33.075Z,20.00
2023-05-23T11:45:40.407Z,20.20
2023-05-23T11:50:49.440Z,20.20
2023-05-23T11:55:56.528Z,20.40
2023-05-23T12:01:03.280Z,20.60
2023-05-23T12:06:07.552Z,20.50
2023-05-23T12:11:11.949Z,20.20
2023-05-23T12:16:17.614Z,20.10
2023-05-23T12:21:22.085Z,20.00
2023-05-23T12:26:26.868Z,19.90
2023-05-23T12:31:32.526Z,19.70
2023-05-23T12:36:48.010Z,19.60
2023-05-23T12:41:53.442Z,19.70
2023-05-23T12:47:00.028Z,19.70
2023-05-23T12:52:05.714Z,19.60
2023-05-23T12:57:13.407Z,19.50
2023-05-23T13:02:20.006Z,19.40
2023-05-23T13:07:25.032Z,19.20
2023-05-23T13:12:30.964Z,19.10
2023-05-23T13:17:37.108Z,19.20
2023-05-23T13:22:42.146Z,19.30
2023-05-23T13:27:48.882Z,19.50
2023-05-23T13:32:55.790Z,19.60
2023-05-23T13:38:00.294Z,19.60
2023-05-23T13:43:04.938Z,19.60
2023-05-23T13:48:11.266Z,19.70
2023-05-23T13:53:17.037Z,19.70
2023-05-23T13:58:21.488Z,19.60
2023-05-23T14:03:28.254Z,19.60
2023-05-23T14:08:33.942Z,19.60
2023-05-23T14:13:38.423Z,19.70
2023-05-23T14:18:45.286Z,19.70
2023-05-23T14:23:59.045Z,19.70
2023-05-23T14:29:04.168Z,19.60
2023-05-23T14:34:10.221Z,19.50
2023-05-23T14:39:16.134Z,19.50
2023-05-23T14:44:20.695Z,19.40
2023-05-23T14:49:27.168Z,19.40
2023-05-23T14:54:31.913Z,19.30
2023-05-23T14:59:36.868Z,19.20
2023-05-23T15:04:42.860Z,19.10
2023-05-23T15:09:47.862Z,19.10
2023-05-23T15:14:52.082Z,18.90
2023-05-23T15:19:58.079Z,18.90
2023-05-23T15:25:02.374Z,18.80
2023-05-23T15:30:10.005Z,18.90
2023-05-23T15:35:17.141Z,18.90
2023-05-23T15:40:24.089Z,18.90
2023-05-23T15:45:28.780Z,18.80
2023-05-23T15:50:34.985Z,18.70
2023-05-23T15:55:42.052Z,18.70
2023-05-23T16:00:47.491Z,18.60
2023-05-23T16:05:54.920Z,18.60
2023-05-23T16:10:59.418Z,18.50
2023-05-23T16:16:05.200Z,18.40
2023-05-23T16:21:11.197Z,18.40
2023-05-23T16:26:16.252Z,18.40
2023-05-23T16:31:27.465Z,18.30
2023-05-23T16:36:33.992Z,18.20
2023-05-23T16:41:38.139Z,18.20
2023-05-23T16:46:42.979Z,18.20
2023-05-23T16:51:50.190Z,18.10
2023-05-23T16:56:54.570Z,18.10
2023-05-23T17:01:59.130Z,18.00
2023-05-23T17:07:05.874Z,18.00
2023-05-23T17:12:10.703Z,18.00
2023-05-23T17:17:15.873Z,17.90
2023-05-23T17:22:24.072Z,17.70
2023-05-23T17:27:28.960Z,17.60
2023-05-23T17:32:33.395Z,17.60
2023-05-23T17:37:43.865Z,17.50
2023-05-23T17:42:48.725Z,17.40
2023-05-23T17:47:55.908Z,17.30
2023-05-23T17:53:04.102Z,17.30
2023-05-23T17:58:09.850Z,17.20
2023-05-23T18:03:15.441Z,17.10
2023-05-23T18:08:21.536Z,17.00
2023-05-23T18:13:26.489Z,17.00
2023-05-23T18:18:33.116Z,16.90
2023-05-23T18:23:39.278Z,16.80
2023-05-23T18:28:45.483Z,16.80
2023-05-23T18:33:51.891Z,16.70
2023-05-23T18:38:58.296Z,16.60
2023-05-23T18:44:05.115Z,16.60
2023-05-23T18:49:09.287Z,16.50
2023-05-23T18:54:24.091Z,16.50
2023-05-23T18:59:28.374Z,16.40
2023-05-23T19:04:34.032Z,16.30
2023-05-23T19:09:39.854Z,16.20
2023-05-23T19:14:44.744Z,16.20
2023-05-23T19:19:49.205Z,16.10
2023-05-23T19:24:55.704Z,16.00
2023-05-23T19:30:00.459Z,16.00
2023-05-23T19:35:09.817Z,15.90
2023-05-23T19:40:17.406Z,15.80
2023-05-23T19:45:22.195Z,15.80
2023-05-23T19:50:34.185Z,15.70
2023-05-23T19:55:40.112Z,15.60
2023-05-23T20:00:47.457Z,15.50
2023-05-23T20:05:51.774Z,15.50
2023-05-23T20:10:59.558Z,15.40
2023-05-23T20:16:05.677Z,15.40
2023-05-23T20:21:10.128Z,15.30
2023-05-23T20:26:16.117Z,15.30
2023-05-23T20:31:20.324Z,15.20
2023-05-23T20:36:25.298Z,15.20
2023-05-23T20:41:31.181Z,15.10
2023-05-23T20:46:36.852Z,15.00
2023-05-23T20:51:41.659Z,14.90
2023-05-23T20:56:52.770Z,14.90
2023-05-23T21:01:57.295Z,14.90
2023-05-23T21:07:02.706Z,14.80
2023-05-23T21:12:08.898Z,14.80
2023-05-23T21:17:13.743Z,14.70
2023-05-23T21:22:18.668Z,14.70
2023-05-23T21:27:24.742Z,14.60
2023-05-23T21:32:29.424Z,14.60
2023-05-23T21:37:36.514Z,14.60
2023-05-23T21:42:43.092Z,14.50
2023-05-23T21:47:47.585Z,14.40
2023-05-23T21:52:52.493Z,14.40
2023-05-23T21:57:58.271Z,14.40
2023-05-23T22:03:02.684Z,14.30
2023-05-23T22:08:08.037Z,14.30
2023-05-23T22:13:13.597Z,14.20
2023-05-23T22:18:18.264Z,14.20
2023-05-23T22:23:22.840Z,14.20
2023-05-23T22:28:28.484Z,14.10
2023-05-23T22:33:32.515Z,14.10
2023-05-23T22:38:37.618Z,14.00
2023-05-23T22:43:43.288Z,14.00
2023-05-23T22:48:47.362Z,13.90
2023-05-23T22:53:51.458Z,13.90
2023-05-23T22:58:56.926Z,13.80
2023-05-23T23:04:01.017Z,13.80
2023-05-23T23:09:05.669Z,13.70
2023-05-23T23:14:11.340Z,13.70
2023-05-23T23:19:15.522Z,13.60
2023-05-23T23:24:19.532Z,13.60
2023-05-23T23:29:24.962Z,13.60
2023-05-23T23:34:29.135Z,13.50
2023-05-23T23:39:33.323Z,13.50
2023-05-23T23:44:38.643Z,13.40
2023-05-23T23:49:42.848Z,13.40
2023-05-23T23:54:46.920Z,13.30
2023-05-23T23:59:52.387Z,13.30
